Time;durP1;ratioP1;P1;durP2;ratioP2;P2;SDS_P1;SDS_P2;PMS_P1;PMS_P2;Temp;Humidity;BMP_temperature;BMP_pressure;BME280_temperature;BME280_humidity;BME280_pressure;Samples;Min_cycle;Max_cycle;Signal;HPM_P1;HPM_P2
2023/12/21 00:02:06;;;;;;;;;2.00;1.00;;;;;-146.67;75.06;75713.94;5103137;27;62568;-74
2023/12/21 00:04:32;;;;;;;;;1.00;1.00;;;;;-146.67;75.26;75707.94;5103244;27;62151;-74
2023/12/21 00:06:57;;;;;;;;;2.25;0.00;;;;;-146.67;75.50;75711.94;5087686;27;62142;-74
2023/12/21 00:09:23;;;;;;;;;2.50;1.00;;;;;-146.67;75.78;75707.94;5083416;28;61828;-74
2023/12/21 00:11:48;;;;;;;;;1.50;1.50;;;;;-146.67;75.74;75709.94;5081866;27;61899;-74
2023/12/21 00:14:13;;;;;;;;;2.00;1.00;;;;;-146.67;76.06;75697.97;5082129;28;61832;-74
2023/12/21 00:16:39;;;;;;;;;0.50;0.00;;;;;-146.67;76.99;75699.94;5089800;27;61856;-74
2023/12/21 00:19:04;;;;;;;;;0.75;0.00;;;;;-146.67;76.91;75697.97;5102964;27;61796;-74
2023/12/21 00:21:29;;;;;;;;;2.00;0.00;;;;;-146.67;76.90;75697.97;5102685;27;63091;-74
2023/12/21 00:23:55;;;;;;;;;0.00;0.00;;;;;-146.67;77.69;75707.94;5102929;27;61955;-74
2023/12/21 00:26:20;;;;;;;;;0.00;0.00;;;;;-146.67;78.43;75699.94;5103014;27;61904;-74
2023/12/21 00:28:45;;;;;;;;;3.00;0.50;;;;;-146.67;78.97;75699.94;5085601;27;62128;-74
2023/12/21 00:31:11;;;;;;;;;1.00;0.75;;;;;-146.67;79.35;75703.94;5077633;28;61702;-74
2023/12/21 00:33:37;;;;;;;;;1.25;1.00;;;;;-146.67;79.54;75701.94;5062228;28;61743;-74
2023/12/21 00:36:02;;;;;;;;;1.75;1.00;;;;;-146.67;80.10;75697.97;5062253;28;61880;-74
2023/12/21 00:38:28;;;;;;;;;1.00;0.00;;;;;-146.67;79.89;75689.97;5062538;28;62014;-74
2023/12/21 00:40:53;;;;;;;;;3.00;2.00;;;;;-146.67;80.21;75683.97;5076969;28;62056;-74
2023/12/21 00:43:18;;;;;;;;;2.50;0.00;;;;;-146.67;80.29;75683.97;5082295;28;61885;-74
2023/12/21 00:45:44;;;;;;;;;3.25;1.00;;;;;-146.67;80.31;75683.97;5081842;28;62005;-74
2023/12/21 00:48:09;;;;;;;;;2.25;0.25;;;;;-146.67;80.13;75683.97;5081790;28;61806;-74
2023/12/21 00:50:35;;;;;;;;;0.75;0.75;;;;;-146.67;80.24;75687.97;5081513;28;61981;-74
2023/12/21 00:53:00;;;;;;;;;0.50;0.50;;;;;-146.67;80.17;75681.97;5082280;28;62064;-74
2023/12/21 00:55:26;;;;;;;;;0.25;0.00;;;;;-146.67;81.01;75674.00;5081873;28;61890;-74
2023/12/21 00:57:51;;;;;;;;;1.00;1.00;;;;;-146.67;80.83;75670.00;5082337;28;61782;-74
2023/12/21 01:00:17;;;;;;;;;2.50;0.75;;;;;-146.67;81.09;75668.00;5081378;27;62502;-74
2023/12/21 01:02:42;;;;;;;;;1.50;1.00;;;;;-146.67;80.59;75666.00;5080951;28;61968;-74
2023/12/21 01:05:08;;;;;;;;;3.00;1.00;;;;;-146.67;80.88;75666.00;5088421;27;62010;-74
2023/12/21 01:07:33;;;;;;;;;1.00;1.00;;;;;-146.67;80.74;75662.00;5096974;27;61796;-74
2023/12/21 01:09:59;;;;;;;;;0.75;0.00;;;;;-146.67;81.39;75676.00;5084661;27;61881;-74
2023/12/21 01:12:24;;;;;;;;;1.00;0.00;;;;;-146.67;81.13;75670.00;5102586;27;61706;-74
2023/12/21 01:14:50;;;;;;;;;1.00;1.00;;;;;-146.67;80.61;75654.03;5097792;27;62003;-74
2023/12/21 01:17:15;;;;;;;;;2.25;1.00;;;;;-146.67;80.50;75650.03;5082376;28;61771;-74
2023/12/21 01:19:41;;;;;;;;;1.50;1.00;;;;;-146.67;80.74;75656.03;5073307;28;62723;-74
2023/12/21 01:22:06;;;;;;;;;2.75;1.00;;;;;-146.67;80.40;75652.03;5060524;28;61747;-74
2023/12/21 01:24:31;;;;;;;;;1.00;1.00;;;;;-146.67;81.01;75652.03;5060499;28;62093;-74
2023/12/21 01:26:57;;;;;;;;;3.25;1.00;;;;;-146.67;81.31;75642.03;5060714;28;62145;-74
2023/12/21 01:29:22;;;;;;;;;1.50;1.00;;;;;-146.67;81.14;75640.03;5059955;28;62501;-74
2023/12/21 01:31:47;;;;;;;;;1.00;1.00;;;;;-146.67;81.44;75640.03;5094125;27;62040;-74
2023/12/21 01:34:13;;;;;;;;;2.00;2.00;;;;;-146.67;81.61;75634.06;5073920;28;62157;-74
2023/12/21 01:36:39;;;;;;;;;2.50;1.00;;;;;-146.67;82.12;75640.03;5082103;27;62001;-74
2023/12/21 01:39:06;;;;;;;;;1.75;1.00;;;;;-146.67;82.06;75640.03;5063881;28;61948;-74
2023/12/21 01:41:32;;;;;;;;;6.50;1.25;;;;;-146.67;82.51;75638.03;5081932;28;61886;-74
2023/12/21 01:43:58;;;;;;;;;1.00;1.00;;;;;-146.67;82.22;75628.06;5081482;28;62190;-74
2023/12/21 01:46:23;;;;;;;;;0.50;0.50;;;;;-146.67;83.27;75632.06;5082024;28;62081;-74
2023/12/21 01:48:50;;;;;;;;;0.25;0.25;;;;;-146.67;83.43;75628.06;5065959;27;63558;-74
2023/12/21 01:51:17;;;;;;;;;3.00;1.00;;;;;-146.67;83.29;75620.06;5060769;28;62127;-74
2023/12/21 01:53:44;;;;;;;;;0.75;0.00;;;;;-146.67;84.57;75628.06;5060958;28;61755;-74
2023/12/21 01:56:10;;;;;;;;;1.00;1.00;;;;;-146.67;84.44;75620.06;5061537;28;61782;-74
2023/12/21 01:58:36;;;;;;;;;0.00;0.00;;;;;-146.67;84.23;75608.09;5065662;28;62475;-74
2023/12/21 02:01:04;;;;;;;;;3.25;0.75;;;;;-146.67;84.84;75610.09;5069096;28;61940;-74
2023/12/21 02:03:30;;;;;;;;;1.00;1.00;;;;;-146.67;84.49;75604.09;5064493;28;61833;-74
2023/12/21 02:05:56;;;;;;;;;0.50;0.50;;;;;-146.67;84.76;75598.09;5065032;28;61727;-74
2023/12/21 02:08:21;;;;;;;;;3.00;2.00;;;;;-146.67;86.34;75592.13;5063589;28;61715;-74
2023/12/21 02:10:46;;;;;;;;;0.50;0.50;;;;;-146.67;87.01;75602.09;5064595;28;62094;-74
2023/12/21 02:13:12;;;;;;;;;2.75;1.00;;;;;-146.67;87.33;75594.13;5064300;28;62260;-74
2023/12/21 02:15:38;;;;;;;;;2.00;0.50;;;;;-146.67;87.48;75584.13;5064476;28;62190;-74
2023/12/21 02:18:07;;;;;;;;;1.50;0.25;;;;;-146.67;87.62;75584.13;5079284;28;63900;-74
2023/12/21 02:20:33;;;;;;;;;1.00;0.00;;;;;-146.67;89.12;75590.13;5063690;28;62144;-74
2023/12/21 02:23:03;;;;;;;;;0.00;0.00;;;;;-146.67;88.41;75586.13;5064147;28;61758;-74
2023/12/21 02:25:29;;;;;;;;;2.25;0.00;;;;;-146.67;87.86;75576.13;5064255;28;62064;-74
2023/12/21 02:27:55;;;;;;;;;4.50;0.00;;;;;-146.67;89.19;75588.13;5063844;28;61988;-74
2023/12/21 02:30:20;;;;;;;;;2.00;1.00;;;;;-146.67;88.70;75580.13;5064745;28;62068;-74
2023/12/21 02:32:45;;;;;;;;;0.00;0.00;;;;;-146.67;88.76;75582.13;5084602;28;61979;-74
2023/12/21 02:35:11;;;;;;;;;0.00;0.00;;;;;-146.67;88.62;75590.13;5084401;28;62030;-74
2023/12/21 02:37:36;;;;;;;;;0.00;0.00;;;;;-146.67;88.23;75586.13;5083966;28;62026;-74
2023/12/21 02:40:02;;;;;;;;;0.00;0.00;;;;;-146.67;88.15;75578.13;5079239;28;62169;-74
2023/12/21 02:42:27;;;;;;;;;1.00;0.00;;;;;-146.67;88.51;75580.13;5084393;28;61844;-74
2023/12/21 02:44:52;;;;;;;;;1.00;1.00;;;;;-146.67;88.44;75578.13;5084272;27;61983;-74
2023/12/21 02:47:18;;;;;;;;;1.00;0.00;;;;;-146.67;88.39;75564.16;5083448;28;61880;-74
2023/12/21 02:49:43;;;;;;;;;0.00;0.00;;;;;-146.67;88.56;75558.16;5083502;28;62527;-74
2023/12/21 02:52:08;;;;;;;;;0.00;0.00;;;;;-146.67;88.84;75564.16;5100202;27;61812;-74
2023/12/21 02:54:34;;;;;;;;;0.00;0.00;;;;;-146.67;89.77;75574.13;5084227;27;62427;-74
2023/12/21 02:56:59;;;;;;;;;0.00;0.00;;;;;-146.67;90.72;75566.16;5083673;27;63259;-74
2023/12/21 02:59:25;;;;;;;;;1.00;0.00;;;;;-146.67;90.73;75564.16;5083628;28;61897;-74
2023/12/21 03:01:50;;;;;;;;;0.00;0.00;;;;;-146.67;90.58;75550.19;5084295;27;62119;-74
2023/12/21 03:04:15;;;;;;;;;0.50;0.00;;;;;-146.67;91.03;75552.19;5083742;27;62120;-74
2023/12/21 03:06:41;;;;;;;;;0.00;0.00;;;;;-146.67;90.89;75554.16;5083323;28;61854;-74
2023/12/21 03:09:06;;;;;;;;;0.00;0.00;;;;;-146.67;91.76;75550.19;5098657;27;61689;-74
2023/12/21 03:11:32;;;;;;;;;0.00;0.00;;;;;-146.67;91.33;75542.19;5083709;28;61891;-74
2023/12/21 03:13:57;;;;;;;;;0.50;0.00;;;;;-146.67;91.71;75546.19;5083530;27;61752;-73
2023/12/21 03:16:23;;;;;;;;;1.25;0.00;;;;;-146.67;92.45;75542.19;5065154;28;63642;-73
2023/12/21 03:18:48;;;;;;;;;0.00;0.00;;;;;-146.67;92.60;75548.19;5083039;28;61692;-73
2023/12/21 03:21:15;;;;;;;;;0.00;0.00;;;;;-146.67;93.01;75546.19;5065420;28;61857;-73
2023/12/21 03:23:41;;;;;;;;;0.00;0.00;;;;;-146.67;93.79;75546.19;5083623;28;61747;-73
2023/12/21 03:26:08;;;;;;;;;0.00;0.00;;;;;-146.67;93.21;75540.19;5064750;28;65023;-73
2023/12/21 03:28:33;;;;;;;;;1.00;0.00;;;;;-146.67;94.22;75540.19;5065693;28;62072;-73
2023/12/21 03:31:00;;;;;;;;;1.00;0.00;;;;;-146.67;93.88;75532.22;5068462;28;61880;-74
2023/12/21 03:33:25;;;;;;;;;1.75;0.75;;;;;-146.67;94.70;75536.19;5063298;28;61824;-73
2023/12/21 03:35:51;;;;;;;;;0.50;0.00;;;;;-146.67;95.49;75536.19;5062151;28;61931;-73
2023/12/21 03:38:16;;;;;;;;;0.00;0.00;;;;;-146.67;96.01;75536.19;5063176;28;61834;-73
2023/12/21 03:40:41;;;;;;;;;0.00;0.00;;;;;-146.67;95.36;75526.22;5058174;28;61842;-73
2023/12/21 03:43:07;;;;;;;;;1.00;0.00;;;;;-146.67;95.81;75516.22;5063448;28;61915;-73
2023/12/21 03:45:35;;;;;;;;;0.00;0.00;;;;;-146.67;96.69;75522.22;5060802;28;63671;-73
2023/12/21 03:48:00;;;;;;;;;0.00;0.00;;;;;-146.67;96.55;75514.22;5062470;28;61775;-73
2023/12/21 03:50:25;;;;;;;;;0.00;0.00;;;;;-146.67;96.16;75514.22;5061880;28;61970;-73
2023/12/21 03:52:51;;;;;;;;;0.00;0.00;;;;;-146.67;95.17;75496.25;5042912;28;61784;-73
2023/12/21 03:55:16;;;;;;;;;0.00;0.00;;;;;-146.67;95.99;75490.28;5042224;28;61879;-73
2023/12/21 03:57:41;;;;;;;;;0.75;0.00;;;;;-146.67;95.75;75486.28;5041746;28;61982;-73
2023/12/21 04:00:08;;;;;;;;;1.00;0.00;;;;;-146.67;95.74;75474.28;5042197;28;62207;-73
2023/12/21 04:02:36;;;;;;;;;0.00;0.00;;;;;-146.67;95.62;75464.31;5058056;28;62074;-73
2023/12/21 04:05:02;;;;;;;;;2.00;0.00;;;;;-146.67;96.24;75470.31;5041893;28;62075;-73
2023/12/21 04:07:27;;;;;;;;;1.00;0.00;;;;;-146.67;96.87;75456.31;5048622;28;61830;-73
2023/12/21 04:09:53;;;;;;;;;0.00;0.00;;;;;-146.67;97.06;75450.34;5062652;28;61819;-73
2023/12/21 04:12:18;;;;;;;;;3.00;0.00;;;;;-146.67;96.27;75438.34;5066750;28;61826;-73
2023/12/21 04:14:43;;;;;;;;;1.00;0.00;;;;;-146.67;96.36;75438.34;5081800;28;62829;-73
2023/12/21 04:17:09;;;;;;;;;0.00;0.00;;;;;-146.67;96.04;75436.34;5082572;28;62107;-73
2023/12/21 04:19:34;;;;;;;;;0.50;0.00;;;;;-146.67;96.23;75444.34;5082244;27;61860;-73
2023/12/21 04:22:00;;;;;;;;;0.00;0.00;;;;;-146.67;96.99;75442.34;5082881;27;62109;-74
2023/12/21 04:24:25;;;;;;;;;0.00;0.00;;;;;-146.67;95.85;75438.34;5097959;27;63720;-73
2023/12/21 04:26:51;;;;;;;;;0.00;0.00;;;;;-146.67;95.75;75426.38;5082909;28;61792;-73
2023/12/21 04:29:16;;;;;;;;;1.00;0.00;;;;;-146.67;94.66;75420.38;5080845;28;62074;-73
2023/12/21 04:31:44;;;;;;;;;0.00;0.00;;;;;-146.67;94.09;75422.38;5082852;27;62493;-73
2023/12/21 04:34:10;;;;;;;;;0.00;0.00;;;;;-146.67;93.34;75418.38;5080614;28;63995;-73
2023/12/21 04:36:36;;;;;;;;;0.00;0.00;;;;;-146.67;92.55;75406.41;5082773;28;61840;-73
2023/12/21 04:39:01;;;;;;;;;0.00;0.00;;;;;-146.67;92.90;75412.38;5082304;28;61938;-73
2023/12/21 04:41:26;;;;;;;;;0.50;0.00;;;;;-146.67;92.18;75406.41;5082651;28;61660;-73
2023/12/21 04:43:52;;;;;;;;;0.50;0.00;;;;;-146.67;92.02;75404.41;5082181;28;61887;-73
2023/12/21 04:46:17;;;;;;;;;0.00;0.00;;;;;-146.67;91.76;75400.41;5080634;28;61842;-73
2023/12/21 04:48:43;;;;;;;;;0.00;0.00;;;;;-146.67;92.76;75388.44;5082577;28;61731;-73
2023/12/21 04:51:14;;;;;;;;;1.00;0.00;;;;;-146.67;92.82;75384.44;5082510;28;61835;-73
2023/12/21 04:53:39;;;;;;;;;0.00;0.00;;;;;-146.67;93.86;75386.44;5097715;27;64539;-73
2023/12/21 04:56:05;;;;;;;;;0.00;0.00;;;;;-146.67;94.12;75384.44;5082470;28;61792;-73
2023/12/21 04:58:30;;;;;;;;;0.00;0.00;;;;;-146.67;93.94;75386.44;5081093;28;62157;-73
2023/12/21 05:00:56;;;;;;;;;0.00;0.00;;;;;-146.67;94.79;75392.41;5084095;27;61979;-74
2023/12/21 05:03:21;;;;;;;;;0.00;0.00;;;;;-146.67;94.48;75374.44;5093009;27;61890;-74
2023/12/21 05:05:47;;;;;;;;;0.00;0.00;;;;;-146.67;93.93;75372.44;5082493;27;61832;-73
2023/12/21 05:08:13;;;;;;;;;0.00;0.00;;;;;-146.67;93.33;75366.47;5082063;28;62114;-73
2023/12/21 05:10:39;;;;;;;;;0.00;0.00;;;;;-146.67;93.11;75366.47;5082567;27;61913;-74
2023/12/21 05:13:04;;;;;;;;;0.00;0.00;;;;;-146.67;94.16;75364.47;5081279;28;61910;-73
2023/12/21 05:15:30;;;;;;;;;0.50;0.00;;;;;-146.67;93.87;75360.47;5079651;28;62085;-73
2023/12/21 05:17:55;;;;;;;;;0.00;0.00;;;;;-146.67;92.37;75362.47;5082556;28;61804;-73
2023/12/21 05:20:20;;;;;;;;;0.00;0.00;;;;;-146.67;92.32;75358.47;5081320;28;61910;-73
2023/12/21 05:22:46;;;;;;;;;0.00;0.00;;;;;-146.67;91.97;75356.47;5081582;28;61814;-74
2023/12/21 05:25:11;;;;;;;;;0.00;0.00;;;;;-146.67;91.32;75356.47;5081881;28;61903;-74
2023/12/21 05:27:36;;;;;;;;;0.00;0.00;;;;;-146.67;91.33;75336.50;5073802;28;61890;-74
2023/12/21 05:30:02;;;;;;;;;0.00;0.00;;;;;-146.67;92.27;75356.47;5061301;28;62179;-73
2023/12/21 05:33:08;;;;;;;;;0.00;0.00;;;;;-146.67;92.57;75352.47;5060847;28;62019;-73
2023/12/21 05:35:27;;;;;;;;;0.00;0.00;;;;;-146.67;92.47;75350.50;5061761;28;61758;-74
2023/12/21 05:37:52;;;;;;;;;0.00;0.00;;;;;-146.67;92.36;75362.47;5046370;28;61871;-73
2023/12/21 05:40:19;;;;;;;;;0.00;0.00;;;;;-146.67;91.82;75348.50;5059491;28;62090;-73
2023/12/21 05:42:44;;;;;;;;;0.00;0.00;;;;;-146.67;91.57;75344.50;5065509;28;61847;-73
2023/12/21 05:45:10;;;;;;;;;0.00;0.00;;;;;-146.67;91.76;75328.53;5064552;28;62024;-74
2023/12/21 05:47:35;;;;;;;;;0.00;0.00;;;;;-146.67;90.64;75324.53;5063517;28;61845;-73
2023/12/21 05:50:01;;;;;;;;;1.00;0.00;;;;;-146.67;91.49;75318.53;5064404;28;61825;-73
2023/12/21 05:52:27;;;;;;;;;0.00;0.00;;;;;-146.67;91.25;75308.56;5046401;28;63867;-73
2023/12/21 05:54:52;;;;;;;;;0.00;0.00;;;;;-146.67;90.88;75298.56;5077465;28;61957;-73
2023/12/21 05:57:17;;;;;;;;;0.00;0.00;;;;;-146.67;91.07;75292.56;5085455;28;61948;-73
2023/12/21 05:59:43;;;;;;;;;0.00;0.00;;;;;-146.67;91.02;75288.59;5084389;28;62056;-73
2023/12/21 06:02:09;;;;;;;;;0.00;0.00;;;;;-146.67;91.45;75288.59;5084527;28;61865;-73
2023/12/21 06:04:35;;;;;;;;;1.00;0.00;;;;;-146.67;91.77;75280.59;5084481;28;62094;-73
2023/12/21 06:07:01;;;;;;;;;0.00;0.00;;;;;-146.67;91.17;75272.59;5066856;28;61932;-74
2023/12/21 06:09:26;;;;;;;;;0.25;0.00;;;;;-146.67;90.81;75272.59;5085215;28;61747;-74
2023/12/21 06:11:51;;;;;;;;;0.00;0.00;;;;;-146.67;90.67;75278.59;5084072;27;62686;-74
2023/12/21 06:14:17;;;;;;;;;0.00;0.00;;;;;-146.67;90.45;75286.59;5085003;28;62197;-73
2023/12/21 06:16:42;;;;;;;;;0.00;0.00;;;;;-146.67;90.09;75278.59;5066936;28;61830;-75
2023/12/21 06:19:10;;;;;;;;;0.00;0.00;;;;;-146.67;89.86;75272.59;5063815;28;61703;-75
2023/12/21 06:21:39;;;;;;;;;0.00;0.00;;;;;-146.67;89.98;75276.59;5063648;28;62751;-74
2023/12/21 06:24:06;;;;;;;;;0.00;0.00;;;;;-146.67;89.23;75282.59;5066209;28;62067;-75
2023/12/21 06:26:32;;;;;;;;;0.00;0.00;;;;;-146.67;89.35;75286.59;5062909;28;61808;-75
2023/12/21 06:28:57;;;;;;;;;1.00;0.00;;;;;-146.67;89.24;75294.56;5084618;28;61737;-75
2023/12/21 06:31:23;;;;;;;;;0.00;0.00;;;;;-146.67;89.09;75280.59;5078849;28;61778;-75
2023/12/21 06:33:49;;;;;;;;;0.00;0.00;;;;;-146.67;88.58;75276.59;5046030;28;62152;-74
2023/12/21 06:36:15;;;;;;;;;0.00;0.00;;;;;-146.67;87.64;75278.59;5068838;28;61770;-74
2023/12/21 06:38:41;;;;;;;;;0.00;0.00;;;;;-146.67;87.61;75308.56;5060105;28;62220;-75
2023/12/21 06:41:07;;;;;;;;;0.00;0.00;;;;;-146.67;88.27;75296.56;5052364;28;63667;-74
2023/12/21 06:43:32;;;;;;;;;1.00;0.00;;;;;-146.67;88.01;75278.59;5062994;28;62072;-74
2023/12/21 06:45:58;;;;;;;;;0.00;0.00;;;;;-146.67;87.94;75278.59;5046071;28;61887;-74
2023/12/21 06:48:23;;;;;;;;;1.00;0.00;;;;;-146.67;87.74;75282.59;5052965;28;62142;-73
2023/12/21 06:50:49;;;;;;;;;0.00;0.00;;;;;-146.67;87.34;75268.63;5048750;28;61846;-74
2023/12/21 06:53:15;;;;;;;;;0.00;0.00;;;;;-146.67;87.14;75288.59;5057339;28;61816;-73
2023/12/21 06:55:44;;;;;;;;;0.00;0.00;;;;;-146.67;87.46;75290.59;5043353;28;61935;-74
2023/12/21 06:58:09;;;;;;;;;0.00;0.00;;;;;-146.67;87.36;75280.59;5063329;28;61761;-73
2023/12/21 07:00:35;;;;;;;;;0.25;0.00;;;;;-146.67;87.00;75266.63;5044147;28;62075;-74
2023/12/21 07:03:00;;;;;;;;;0.00;0.00;;;;;-146.67;86.84;75264.63;5043223;28;62085;-74
2023/12/21 07:05:26;;;;;;;;;0.00;0.00;;;;;-146.67;87.41;75266.63;5026062;28;61792;-74
2023/12/21 07:07:53;;;;;;;;;0.00;0.00;;;;;-146.67;87.19;75278.59;5043761;28;61853;-74
2023/12/21 07:10:19;;;;;;;;;0.00;0.00;;;;;-146.67;87.73;75286.59;5024895;28;64723;-74
2023/12/21 07:12:44;;;;;;;;;0.00;0.00;;;;;-146.67;87.56;75272.59;5053379;28;61791;-74
2023/12/21 07:15:11;;;;;;;;;0.00;0.00;;;;;-146.67;87.00;75266.63;5064210;28;62188;-74
2023/12/21 07:17:36;;;;;;;;;0.50;0.00;;;;;-146.67;86.72;75274.59;5083995;27;62041;-74
2023/12/21 07:20:02;;;;;;;;;0.00;0.00;;;;;-146.67;86.97;75274.59;5082265;27;62942;-74
2023/12/21 07:22:27;;;;;;;;;0.00;0.00;;;;;-146.67;87.10;75264.63;5082454;28;61868;-75
2023/12/21 07:24:52;;;;;;;;;0.00;0.00;;;;;-146.67;86.76;75260.63;5082218;28;61797;-74
2023/12/21 07:27:18;;;;;;;;;1.00;0.00;;;;;-146.67;86.70;75254.63;5083081;27;61785;-74
2023/12/21 07:29:44;;;;;;;;;0.00;0.00;;;;;-146.67;86.73;75252.66;5082612;27;62224;-74
2023/12/21 07:32:10;;;;;;;;;0.00;0.00;;;;;-146.67;87.29;75262.63;5082842;27;62126;-74
2023/12/21 07:34:35;;;;;;;;;0.00;0.00;;;;;-146.67;87.00;75256.63;5082326;28;62012;-74
2023/12/21 07:37:00;;;;;;;;;0.00;0.00;;;;;-146.67;87.54;75254.63;5081512;28;62260;-74
2023/12/21 07:39:26;;;;;;;;;0.00;0.00;;;;;-146.67;87.85;75250.66;5081597;27;62145;-74
2023/12/21 07:41:51;;;;;;;;;0.00;0.00;;;;;-146.67;87.96;75242.66;5081482;28;61786;-74
2023/12/21 07:44:16;;;;;;;;;0.00;0.00;;;;;-146.67;88.23;75244.66;5081627;28;61918;-73
2023/12/21 07:46:42;;;;;;;;;0.00;0.00;;;;;-146.67;88.00;75242.66;5087935;27;62079;-73
2023/12/21 07:49:08;;;;;;;;;0.00;0.00;;;;;-146.67;88.23;75250.66;5089828;27;63665;-74
2023/12/21 07:51:33;;;;;;;;;1.00;0.00;;;;;-146.67;89.04;75262.63;5097818;27;62224;-73
2023/12/21 07:53:58;;;;;;;;;0.00;0.00;;;;;-146.67;89.66;75266.63;5082671;28;61774;-74
2023/12/21 07:56:24;;;;;;;;;0.00;0.00;;;;;-146.67;89.63;75252.66;5096269;27;61922;-74
2023/12/21 07:58:49;;;;;;;;;0.00;0.00;;;;;-146.67;90.02;75250.66;5081588;28;62136;-75
2023/12/21 08:01:14;;;;;;;;;1.00;0.00;;;;;-146.67;89.98;75250.66;5081477;28;62215;-75
2023/12/21 08:03:40;;;;;;;;;0.00;0.00;;;;;-146.67;89.29;75244.66;5081194;28;61954;-74
2023/12/21 08:06:05;;;;;;;;;0.00;0.00;;;;;-146.67;89.76;75250.66;5083111;28;61809;-74
2023/12/21 08:08:30;;;;;;;;;0.00;0.00;;;;;-146.67;89.86;75238.66;5082308;28;61902;-74
2023/12/21 08:10:57;;;;;;;;;1.50;0.00;;;;;-146.67;89.26;75226.69;5082169;28;61842;-75
2023/12/21 08:13:23;;;;;;;;;0.00;0.00;;;;;-146.67;88.87;75212.72;5081153;28;61807;-74
2023/12/21 08:15:48;;;;;;;;;0.00;0.00;;;;;-146.67;89.26;75212.72;5082618;28;61790;-74
2023/12/21 08:18:13;;;;;;;;;1.50;0.00;;;;;-146.67;89.15;75204.72;5082195;28;62085;-75
2023/12/21 08:20:41;;;;;;;;;0.00;0.00;;;;;-146.67;89.48;75220.69;5082045;28;61749;-74
2023/12/21 08:23:07;;;;;;;;;0.50;0.00;;;;;-146.67;90.33;75224.69;5068366;27;61841;-75
2023/12/21 08:25:32;;;;;;;;;0.00;0.00;;;;;-146.67;89.91;75192.75;5061951;28;61732;-74
2023/12/21 08:27:58;;;;;;;;;0.00;0.00;;;;;-146.67;89.65;75190.75;5077497;28;62690;-74
2023/12/21 08:30:24;;;;;;;;;0.00;0.00;;;;;-146.67;89.27;75186.75;5062000;28;61723;-74
2023/12/21 08:32:49;;;;;;;;;0.00;0.00;;;;;-146.67;89.92;75186.75;5076613;28;62032;-74
2023/12/21 08:35:15;;;;;;;;;0.00;0.00;;;;;-146.67;89.70;75184.75;5081660;28;62046;-74
2023/12/21 08:37:40;;;;;;;;;0.00;0.00;;;;;-146.67;89.88;75178.75;5079570;27;62676;-74
2023/12/21 08:40:06;;;;;;;;;0.00;0.00;;;;;-146.67;89.49;75184.75;5081782;27;61935;-74
2023/12/21 08:42:31;;;;;;;;;0.00;0.00;;;;;-146.67;89.22;75192.75;5081145;28;61764;-74
2023/12/21 08:44:59;;;;;;;;;0.00;0.00;;;;;-146.67;89.71;75182.75;5082150;28;62026;-74
2023/12/21 08:47:26;;;;;;;;;0.00;0.00;;;;;-146.67;89.34;75188.75;5081414;28;61859;-74
2023/12/21 08:49:52;;;;;;;;;0.00;0.00;;;;;-146.67;88.71;75186.75;5080103;28;62183;-74
2023/12/21 08:52:17;;;;;;;;;0.50;0.00;;;;;-146.67;88.73;75184.75;5081875;28;61801;-74
2023/12/21 08:54:43;;;;;;;;;0.00;0.00;;;;;-146.67;88.45;75178.75;5081513;28;62103;-74
2023/12/21 08:57:11;;;;;;;;;2.00;0.00;;;;;-146.67;88.41;75172.78;5079734;28;65015;-74
2023/12/21 08:59:36;;;;;;;;;0.00;0.00;;;;;-146.67;88.28;75166.78;5077724;28;62029;-74
2023/12/21 09:02:02;;;;;;;;;2.00;1.00;;;;;-146.67;87.66;75164.78;5080323;28;62333;-74
2023/12/21 09:04:27;;;;;;;;;0.00;0.00;;;;;-146.67;87.26;75150.81;5081989;28;61837;-74
2023/12/21 09:06:52;;;;;;;;;0.00;0.00;;;;;-146.67;86.96;75160.78;5080961;28;61779;-74
2023/12/21 09:09:18;;;;;;;;;0.00;0.00;;;;;-146.67;86.58;75154.78;5083414;28;61863;-74
2023/12/21 09:11:44;;;;;;;;;0.00;0.00;;;;;-146.67;86.69;75142.81;5083587;28;61931;-73
2023/12/21 09:14:09;;;;;;;;;0.00;0.00;;;;;-146.67;86.25;75132.84;5082632;28;61881;-75
2023/12/21 09:16:34;;;;;;;;;0.00;0.00;;;;;-146.67;85.96;75124.84;5083722;28;61827;-75
2023/12/21 09:19:00;;;;;;;;;0.00;0.00;;;;;-146.67;85.97;75134.81;5082818;28;61945;-75
2023/12/21 09:21:26;;;;;;;;;0.00;0.00;;;;;-146.67;86.33;75138.81;5083167;28;61741;-75
2023/12/21 09:23:52;;;;;;;;;0.00;0.00;;;;;-146.67;86.59;75132.84;5083804;28;62098;-75
2023/12/21 09:26:18;;;;;;;;;0.00;0.00;;;;;-146.67;86.71;75120.84;5083691;28;62756;-75
2023/12/21 09:28:43;;;;;;;;;0.00;0.00;;;;;-146.67;87.15;75128.84;5085172;28;61812;-75
2023/12/21 09:31:08;;;;;;;;;0.00;0.00;;;;;-146.67;87.28;75124.84;5085298;28;61849;-75
2023/12/21 09:33:34;;;;;;;;;1.00;0.00;;;;;-146.67;87.63;75122.84;5085607;28;61944;-75
2023/12/21 09:36:03;;;;;;;;;0.00;0.00;;;;;-146.67;87.35;75108.88;5084100;28;62015;-75
2023/12/21 09:38:30;;;;;;;;;0.00;0.00;;;;;-146.67;88.16;75122.84;5080836;27;61887;-75
2023/12/21 09:40:59;;;;;;;;;0.00;0.00;;;;;-146.67;88.25;75122.84;5064749;28;61696;-75
2023/12/21 09:43:25;;;;;;;;;0.00;0.00;;;;;-146.67;88.99;75120.84;5064786;28;61904;-75
2023/12/21 09:45:53;;;;;;;;;0.00;0.00;;;;;-146.67;89.56;75114.88;5065090;28;62756;-75
2023/12/21 09:48:22;;;;;;;;;0.00;0.00;;;;;-146.67;89.29;75110.88;5085187;27;61795;-74
2023/12/21 09:50:49;;;;;;;;;0.00;0.00;;;;;-146.67;89.79;75112.88;5081614;27;62027;-74
2023/12/21 09:53:16;;;;;;;;;0.00;0.00;;;;;-146.67;89.78;75104.88;5065196;28;62044;-75
2023/12/21 09:55:43;;;;;;;;;0.00;0.00;;;;;-146.67;89.99;75106.88;5064159;28;61755;-75
2023/12/21 09:58:12;;;;;;;;;0.00;0.00;;;;;-146.67;90.26;75110.88;5064657;28;62012;-75
2023/12/21 10:00:40;;;;;;;;;1.00;0.00;;;;;-146.67;90.94;75120.84;5064093;28;61805;-74
2023/12/21 10:03:06;;;;;;;;;0.00;0.00;;;;;-146.67;91.67;75138.81;5064624;28;61766;-74
2023/12/21 10:05:34;;;;;;;;;0.00;0.00;;;;;-146.67;90.99;75104.88;5063464;28;61853;-74
2023/12/21 10:08:00;;;;;;;;;0.00;0.00;;;;;-146.67;90.99;75104.88;5064117;28;61713;-74
2023/12/21 10:10:26;;;;;;;;;0.00;0.00;;;;;-146.67;91.31;75098.88;5064541;28;61910;-74
2023/12/21 10:12:52;;;;;;;;;0.00;0.00;;;;;-146.67;91.95;75098.88;5062667;28;62046;-74
2023/12/21 10:15:18;;;;;;;;;0.00;0.00;;;;;-146.67;92.83;75106.88;5063628;28;62039;-74
2023/12/21 10:17:44;;;;;;;;;0.25;0.00;;;;;-146.67;92.49;75102.88;5064508;28;61806;-74
2023/12/21 10:20:12;;;;;;;;;0.00;0.00;;;;;-146.67;91.74;75092.91;5062854;28;61953;-74
2023/12/21 10:22:40;;;;;;;;;0.00;0.00;;;;;-146.67;92.29;75098.88;5064380;28;61726;-75
2023/12/21 10:25:07;;;;;;;;;0.00;0.00;;;;;-146.67;92.19;75090.91;5063477;28;62447;-74
2023/12/21 10:27:33;;;;;;;;;0.00;0.00;;;;;-146.67;91.87;75098.88;5064277;28;61809;-74
2023/12/21 10:29:58;;;;;;;;;0.00;0.00;;;;;-146.67;93.28;75102.88;5063738;28;61756;-74
2023/12/21 10:32:24;;;;;;;;;0.00;0.00;;;;;-146.67;93.10;75112.88;5064324;28;61767;-74
2023/12/21 10:34:49;;;;;;;;;0.00;0.00;;;;;-146.67;93.77;75106.88;5063010;28;61865;-74
2023/12/21 10:37:15;;;;;;;;;1.00;0.50;;;;;-146.67;94.08;75098.88;5063980;28;61969;-74
2023/12/21 10:39:41;;;;;;;;;1.00;0.00;;;;;-146.67;92.56;75102.88;5071428;27;61904;-74
2023/12/21 10:42:06;;;;;;;;;0.00;0.00;;;;;-146.67;92.92;75116.84;5084214;27;61696;-74
2023/12/21 10:44:32;;;;;;;;;0.00;0.00;;;;;-146.67;92.74;75114.88;5083093;27;61722;-74
2023/12/21 10:47:00;;;;;;;;;0.00;0.00;;;;;-146.67;92.46;75120.84;5084146;28;61826;-74
2023/12/21 10:49:26;;;;;;;;;0.00;0.00;;;;;-146.67;93.20;75118.84;5099049;27;61905;-74
2023/12/21 10:51:53;;;;;;;;;0.50;0.00;;;;;-146.67;93.14;75118.84;5084593;28;62162;-74
2023/12/21 10:54:20;;;;;;;;;0.50;0.00;;;;;-146.67;93.05;75126.84;5083168;27;61808;-74
2023/12/21 10:56:46;;;;;;;;;0.50;0.50;;;;;-146.67;93.47;75120.84;5084010;27;62051;-74
2023/12/21 10:59:13;;;;;;;;;2.00;0.00;;;;;-146.67;93.38;75114.88;5083532;28;62281;-74
2023/12/21 11:01:40;;;;;;;;;2.00;0.00;;;;;-146.67;93.64;75102.88;5083989;27;61864;-74
2023/12/21 11:04:05;;;;;;;;;0.00;0.00;;;;;-146.67;93.03;75116.84;5082574;27;61821;-74
2023/12/21 11:06:33;;;;;;;;;1.00;0.25;;;;;-146.67;93.15;75118.84;5081787;28;61895;-74
2023/12/21 11:09:00;;;;;;;;;1.00;1.00;;;;;-146.67;93.04;75130.84;5083824;28;61904;-74
2023/12/21 11:11:26;;;;;;;;;0.75;0.00;;;;;-146.67;93.35;75090.91;5083878;27;61793;-74